• Join FlightAware (Why Join?)
  • Login
  • US Flag 
12:30PM EDT


 

Airport Tracker/Info


-or-


 

Live Flight TrackerFlight Track Log ✈ EJA583 ✈ 18-Sep-2013 ✈ 2T1 - KBWD

Flight Track Log - Related Links

Times and Time Zones

All times are in EDT time to prevent confusion due to time zone crossing. See the EJA583 flight status page for this flight to view local times or setup timezone preferences in your user account.

Time Position Orientation Groundspeed Altitude Reporting Facility
EDT Latitude Longitude Course Direction KTS MPH feet Rate Location/Type
05:23PM 34.0464 -102.4642 127° Southeast 346 398 14,700  Level Fort Worth Center
05:24PM 33.9914 -102.3758 127° Southeast 301 346 15,500 1,200 Climbing Fort Worth Center
05:25PM 33.9383 -102.2925 127° Southeast 326 375 17,200 1,860 Climbing Fort Worth Center
05:26PM 33.8689 -102.1986 132° Southeast 339 390 19,300 1,920 Climbing Fort Worth Center
05:27PM 33.8050 -102.1228 135° Southeast 354 407 21,100 1,800 Climbing Fort Worth Center
05:28PM 33.7269 -102.0336 136° Southeast 354 407 23,000 2,340 Climbing Fort Worth Center
05:29PM 33.6611 -101.9503 133° Southeast 354 407 25,800 2,460 Climbing Fort Worth Center
05:30PM 33.6058 -101.8600 126° Southeast 343 395 28,000 1,500 Climbing Fort Worth Center
05:31PM 33.5489 -101.7600 124° Southeast 343 395 28,900 480 Climbing Fort Worth Center
05:32PM 33.4842 -101.6447 124° Southeast 374 430 29,000  Climbing Fort Worth Center
05:33PM 33.4272 -101.5375 122° Southeast 423 487 29,000  Level Fort Worth Center
05:34PM 33.3519 -101.4072 125° Southeast 431 496 29,000  Level Fort Worth Center
05:35PM 33.2950 -101.2978 122° Southeast 431 496 29,000  Level Fort Worth Center
05:36PM 33.2197 -101.1678 125° Southeast 431 496 29,000  Level Fort Worth Center
05:37PM 33.1622 -101.0586 122° Southeast 431 496 29,000  Level Fort Worth Center
05:38PM 33.0867 -100.9292 125° Southeast 431 496 29,000  Level Fort Worth Center
05:39PM 33.0189 -100.8125 125° Southeast 431 496 29,000  Level Fort Worth Center
05:40PM 32.9533 -100.6911 123° Southeast 431 496 29,000  Level Fort Worth Center
05:41PM 32.8853 -100.5750 125° Southeast 431 496 29,000  Level Fort Worth Center
05:42PM 32.8194 -100.4564 123° Southeast 431 496 29,000  Level Fort Worth Center
05:43PM 32.7511 -100.3356 124° Southeast 431 496 29,000 -120 Level Fort Worth Center
05:44PM 32.6592 -100.2511 142° Southeast 419 482 28,800 -840 Descending Fort Worth Center
05:45PM 32.5669 -100.1767 146° Southeast 432 497 27,400 -1,500 Descending Fort Worth Center
05:46PM 32.4644 -100.0922 145° Southeast 444 511 25,800 -1,800 Descending Fort Worth Center
05:47PM 32.3661 -100.0083 144° Southeast 444 511 23,800 -1,680 Descending Fort Worth Center
05:48PM 32.2867 -99.9078 133° Southeast 444 511 22,500 -1,440 Descending Fort Worth Center
05:49PM 32.2264 -99.7881 121° Southeast 419 482 21,000 -1,560 Descending Fort Worth Center
05:50PM 32.1847 -99.6667 112° Southeast 405 466 19,400 -1,620 Descending Fort Worth Center
05:51PM 32.1386 -99.5528 116° Southeast 399 459 17,800 -1,800 Descending Fort Worth Center
05:52PM 32.0944 -99.4439 116° Southeast 379 436 15,800 -2,040 Descending Fort Worth Center
05:53PM 32.0522 -99.3425 116° Southeast 358 412 13,800 -2,640 Descending Fort Worth Center
05:54PM 32.0119 -99.2461 116° Southeast 339 390 10,500 -2,880 Descending Fort Worth Center
05:55PM 31.9758 -99.1547 115° Southeast 322 371 8,100 -2,460 Descending Fort Worth Center